sensor_id;sensor_type;location;lat;lon;timestamp;P1;durP1;ratioP1;P2;durP2;ratioP2
51654;SDS011;37732;53.106;7.030;2023-02-04T00:01:34;36.17;;;10.88;;
51654;SDS011;37732;53.106;7.030;2023-02-04T00:04:00;30.13;;;11.15;;
51654;SDS011;37732;53.106;7.030;2023-02-04T00:06:26;37.05;;;9.77;;
51654;SDS011;37732;53.106;7.030;2023-02-04T00:08:52;32.20;;;11.13;;
51654;SDS011;37732;53.106;7.030;2023-02-04T00:11:18;35.40;;;10.57;;
51654;SDS011;37732;53.106;7.030;2023-02-04T00:13:43;33.40;;;9.90;;
51654;SDS011;37732;53.106;7.030;2023-02-04T00:16:09;32.95;;;10.82;;
51654;SDS011;37732;53.106;7.030;2023-02-04T00:18:35;33.65;;;10.63;;
51654;SDS011;37732;53.106;7.030;2023-02-04T00:21:01;32.67;;;10.25;;
51654;SDS011;37732;53.106;7.030;2023-02-04T00:23:26;31.02;;;10.68;;
51654;SDS011;37732;53.106;7.030;2023-02-04T00:25:52;36.35;;;9.55;;
51654;SDS011;37732;53.106;7.030;2023-02-04T00:28:18;34.78;;;11.70;;
51654;SDS011;37732;53.106;7.030;2023-02-04T00:30:44;34.38;;;10.52;;
51654;SDS011;37732;53.106;7.030;2023-02-04T00:33:11;32.92;;;9.07;;
51654;SDS011;37732;53.106;7.030;2023-02-04T00:35:37;31.70;;;10.38;;
51654;SDS011;37732;53.106;7.030;2023-02-04T00:38:13;30.00;;;9.38;;
51654;SDS011;37732;53.106;7.030;2023-02-04T00:40:39;30.80;;;9.70;;
51654;SDS011;37732;53.106;7.030;2023-02-04T00:43:04;35.95;;;10.02;;
51654;SDS011;37732;53.106;7.030;2023-02-04T00:45:30;38.67;;;10.55;;
51654;SDS011;37732;53.106;7.030;2023-02-04T00:47:56;33.60;;;11.00;;
51654;SDS011;37732;53.106;7.030;2023-02-04T00:50:21;26.73;;;9.40;;
51654;SDS011;37732;53.106;7.030;2023-02-04T00:52:47;40.88;;;10.38;;
51654;SDS011;37732;53.106;7.030;2023-02-04T00:55:13;41.10;;;9.98;;
51654;SDS011;37732;53.106;7.030;2023-02-04T00:57:41;34.92;;;10.00;;
51654;SDS011;37732;53.106;7.030;2023-02-04T01:00:07;34.53;;;10.23;;
51654;SDS011;37732;53.106;7.030;2023-02-04T01:02:34;31.67;;;8.88;;
51654;SDS011;37732;53.106;7.030;2023-02-04T01:05:00;28.52;;;10.18;;
51654;SDS011;37732;53.106;7.030;2023-02-04T01:07:25;34.05;;;10.68;;
51654;SDS011;37732;53.106;7.030;2023-02-04T01:09:51;33.42;;;9.93;;
51654;SDS011;37732;53.106;7.030;2023-02-04T01:12:17;26.83;;;9.30;;
51654;SDS011;37732;53.106;7.030;2023-02-04T01:14:42;36.35;;;10.48;;
51654;SDS011;37732;53.106;7.030;2023-02-04T01:17:08;33.85;;;10.77;;
51654;SDS011;37732;53.106;7.030;2023-02-04T01:19:34;36.38;;;10.98;;
51654;SDS011;37732;53.106;7.030;2023-02-04T01:22:00;41.47;;;9.05;;
51654;SDS011;37732;53.106;7.030;2023-02-04T01:24:25;29.48;;;9.38;;
51654;SDS011;37732;53.106;7.030;2023-02-04T01:26:51;35.75;;;10.63;;
51654;SDS011;37732;53.106;7.030;2023-02-04T01:29:16;31.30;;;8.73;;
51654;SDS011;37732;53.106;7.030;2023-02-04T01:31:42;36.30;;;9.55;;
51654;SDS011;37732;53.106;7.030;2023-02-04T01:34:08;27.23;;;8.88;;
51654;SDS011;37732;53.106;7.030;2023-02-04T01:36:33;32.10;;;10.02;;
51654;SDS011;37732;53.106;7.030;2023-02-04T01:38:59;37.58;;;9.68;;
51654;SDS011;37732;53.106;7.030;2023-02-04T01:41:25;26.05;;;8.50;;
51654;SDS011;37732;53.106;7.030;2023-02-04T01:43:51;29.45;;;9.45;;
51654;SDS011;37732;53.106;7.030;2023-02-04T01:46:17;30.83;;;9.25;;
51654;SDS011;37732;53.106;7.030;2023-02-04T01:48:43;34.15;;;9.90;;
51654;SDS011;37732;53.106;7.030;2023-02-04T01:51:13;29.45;;;9.85;;
51654;SDS011;37732;53.106;7.030;2023-02-04T01:53:41;33.80;;;9.20;;
51654;SDS011;37732;53.106;7.030;2023-02-04T01:56:15;34.42;;;10.77;;
51654;SDS011;37732;53.106;7.030;2023-02-04T01:58:43;37.40;;;9.70;;
51654;SDS011;37732;53.106;7.030;2023-02-04T02:03:41;34.33;;;9.30;;
51654;SDS011;37732;53.106;7.030;2023-02-04T02:06:07;38.03;;;10.73;;
51654;SDS011;37732;53.106;7.030;2023-02-04T02:08:35;34.03;;;9.55;;
51654;SDS011;37732;53.106;7.030;2023-02-04T02:11:01;36.17;;;11.27;;
51654;SDS011;37732;53.106;7.030;2023-02-04T02:13:27;35.33;;;10.27;;
51654;SDS011;37732;53.106;7.030;2023-02-04T02:15:53;34.63;;;9.75;;
51654;SDS011;37732;53.106;7.030;2023-02-04T02:18:19;30.00;;;9.15;;
51654;SDS011;37732;53.106;7.030;2023-02-04T02:20:44;35.88;;;9.68;;
51654;SDS011;37732;53.106;7.030;2023-02-04T02:26:07;35.38;;;11.07;;
51654;SDS011;37732;53.106;7.030;2023-02-04T02:28:33;38.83;;;10.00;;
51654;SDS011;37732;53.106;7.030;2023-02-04T02:30:59;37.95;;;11.18;;
51654;SDS011;37732;53.106;7.030;2023-02-04T02:33:24;33.55;;;10.75;;
51654;SDS011;37732;53.106;7.030;2023-02-04T02:35:50;29.02;;;9.55;;
51654;SDS011;37732;53.106;7.030;2023-02-04T02:38:17;38.92;;;10.45;;
51654;SDS011;37732;53.106;7.030;2023-02-04T02:40:43;29.00;;;10.85;;
51654;SDS011;37732;53.106;7.030;2023-02-04T02:43:14;36.55;;;10.38;;
51654;SDS011;37732;53.106;7.030;2023-02-04T02:45:42;32.58;;;10.18;;
51654;SDS011;37732;53.106;7.030;2023-02-04T02:48:09;33.67;;;9.52;;
51654;SDS011;37732;53.106;7.030;2023-02-04T02:50:35;26.25;;;8.57;;
51654;SDS011;37732;53.106;7.030;2023-02-04T02:53:02;31.33;;;8.75;;
51654;SDS011;37732;53.106;7.030;2023-02-04T02:55:30;33.33;;;8.95;;
51654;SDS011;37732;53.106;7.030;2023-02-04T02:57:56;26.30;;;7.88;;
51654;SDS011;37732;53.106;7.030;2023-02-04T03:00:23;29.92;;;9.18;;
51654;SDS011;37732;53.106;7.030;2023-02-04T03:03:01;25.08;;;8.13;;
51654;SDS011;37732;53.106;7.030;2023-02-04T03:05:33;23.27;;;8.07;;
51654;SDS011;37732;53.106;7.030;2023-02-04T03:08:03;26.05;;;7.50;;
51654;SDS011;37732;53.106;7.030;2023-02-04T03:10:29;27.83;;;8.20;;
51654;SDS011;37732;53.106;7.030;2023-02-04T03:12:55;25.25;;;7.68;;
51654;SDS011;37732;53.106;7.030;2023-02-04T03:15:21;27.63;;;7.60;;
51654;SDS011;37732;53.106;7.030;2023-02-04T03:17:47;34.30;;;7.78;;
51654;SDS011;37732;53.106;7.030;2023-02-04T03:20:13;28.02;;;8.45;;
51654;SDS011;37732;53.106;7.030;2023-02-04T03:22:40;24.73;;;7.45;;
51654;SDS011;37732;53.106;7.030;2023-02-04T03:25:06;23.45;;;7.50;;
51654;SDS011;37732;53.106;7.030;2023-02-04T03:27:32;28.48;;;8.15;;
51654;SDS011;37732;53.106;7.030;2023-02-04T03:29:58;21.05;;;7.13;;
51654;SDS011;37732;53.106;7.030;2023-02-04T03:32:24;21.42;;;6.50;;
51654;SDS011;37732;53.106;7.030;2023-02-04T03:34:50;22.85;;;7.13;;
51654;SDS011;37732;53.106;7.030;2023-02-04T03:37:15;20.85;;;7.28;;
51654;SDS011;37732;53.106;7.030;2023-02-04T03:39:41;24.60;;;7.20;;
51654;SDS011;37732;53.106;7.030;2023-02-04T03:42:08;29.52;;;8.77;;
51654;SDS011;37732;53.106;7.030;2023-02-04T03:44:33;30.23;;;8.02;;
51654;SDS011;37732;53.106;7.030;2023-02-04T03:46:59;24.23;;;6.88;;
51654;SDS011;37732;53.106;7.030;2023-02-04T03:49:25;24.70;;;7.10;;
51654;SDS011;37732;53.106;7.030;2023-02-04T03:51:52;26.88;;;7.00;;
51654;SDS011;37732;53.106;7.030;2023-02-04T03:54:17;21.15;;;7.35;;
51654;SDS011;37732;53.106;7.030;2023-02-04T03:56:43;22.58;;;6.88;;
51654;SDS011;37732;53.106;7.030;2023-02-04T03:59:09;24.42;;;7.43;;
51654;SDS011;37732;53.106;7.030;2023-02-04T04:01:34;22.88;;;6.10;;
51654;SDS011;37732;53.106;7.030;2023-02-04T04:04:00;21.13;;;6.80;;
51654;SDS011;37732;53.106;7.030;2023-02-04T04:06:26;26.30;;;6.57;;
51654;SDS011;37732;53.106;7.030;2023-02-04T04:08:51;19.35;;;7.40;;
51654;SDS011;37732;53.106;7.030;2023-02-04T04:11:17;20.50;;;6.90;;
51654;SDS011;37732;53.106;7.030;2023-02-04T04:13:42;21.52;;;6.20;;
51654;SDS011;37732;53.106;7.030;2023-02-04T04:16:08;27.45;;;8.35;;
51654;SDS011;37732;53.106;7.030;2023-02-04T04:18:34;20.90;;;6.93;;
51654;SDS011;37732;53.106;7.030;2023-02-04T04:21:00;19.23;;;6.20;;
51654;SDS011;37732;53.106;7.030;2023-02-04T04:23:26;20.55;;;7.90;;
51654;SDS011;37732;53.106;7.030;2023-02-04T04:25:52;16.80;;;5.97;;
51654;SDS011;37732;53.106;7.030;2023-02-04T04:28:17;17.60;;;6.45;;
51654;SDS011;37732;53.106;7.030;2023-02-04T04:30:43;16.90;;;5.40;;
51654;SDS011;37732;53.106;7.030;2023-02-04T04:33:09;24.23;;;6.72;;
51654;SDS011;37732;53.106;7.030;2023-02-04T04:35:35;19.33;;;6.40;;
51654;SDS011;37732;53.106;7.030;2023-02-04T04:38:01;18.23;;;6.20;;
51654;SDS011;37732;53.106;7.030;2023-02-04T04:40:27;20.95;;;6.38;;
51654;SDS011;37732;53.106;7.030;2023-02-04T04:42:52;17.27;;;6.00;;
51654;SDS011;37732;53.106;7.030;2023-02-04T04:45:19;17.50;;;5.53;;
51654;SDS011;37732;53.106;7.030;2023-02-04T04:47:45;18.70;;;6.05;;
51654;SDS011;37732;53.106;7.030;2023-02-04T04:50:11;14.63;;;5.40;;
51654;SDS011;37732;53.106;7.030;2023-02-04T04:52:37;16.17;;;5.63;;
51654;SDS011;37732;53.106;7.030;2023-02-04T04:55:02;15.18;;;5.88;;
51654;SDS011;37732;53.106;7.030;2023-02-04T04:57:29;18.10;;;5.35;;
51654;SDS011;37732;53.106;7.030;2023-02-04T04:59:55;16.65;;;5.28;;
51654;SDS011;37732;53.106;7.030;2023-02-04T05:02:21;15.07;;;5.68;;
51654;SDS011;37732;53.106;7.030;2023-02-04T05:04:47;14.82;;;5.28;;
51654;SDS011;37732;53.106;7.030;2023-02-04T05:07:12;16.50;;;5.32;;
51654;SDS011;37732;53.106;7.030;2023-02-04T05:09:38;14.60;;;5.32;;
51654;SDS011;37732;53.106;7.030;2023-02-04T05:12:04;13.48;;;5.47;;
51654;SDS011;37732;53.106;7.030;2023-02-04T05:14:30;16.80;;;5.55;;
51654;SDS011;37732;53.106;7.030;2023-02-04T05:16:55;14.38;;;4.80;;
51654;SDS011;37732;53.106;7.030;2023-02-04T05:19:21;15.00;;;4.57;;
51654;SDS011;37732;53.106;7.030;2023-02-04T05:21:47;13.75;;;4.25;;
51654;SDS011;37732;53.106;7.030;2023-02-04T05:24:12;12.38;;;4.43;;
51654;SDS011;37732;53.106;7.030;2023-02-04T05:26:38;10.23;;;3.55;;
51654;SDS011;37732;53.106;7.030;2023-02-04T05:29:04;12.02;;;4.80;;
51654;SDS011;37732;53.106;7.030;2023-02-04T05:31:30;13.40;;;3.53;;
51654;SDS011;37732;53.106;7.030;2023-02-04T05:33:55;13.57;;;4.70;;
51654;SDS011;37732;53.106;7.030;2023-02-04T05:36:21;12.50;;;3.95;;
51654;SDS011;37732;53.106;7.030;2023-02-04T05:38:47;13.98;;;4.00;;
51654;SDS011;37732;53.106;7.030;2023-02-04T05:41:12;13.05;;;3.88;;
51654;SDS011;37732;53.106;7.030;2023-02-04T05:43:38;16.10;;;4.72;;
51654;SDS011;37732;53.106;7.030;2023-02-04T05:46:04;10.23;;;3.35;;
51654;SDS011;37732;53.106;7.030;2023-02-04T05:48:29;9.00;;;3.30;;
51654;SDS011;37732;53.106;7.030;2023-02-04T05:50:55;13.05;;;3.10;;
51654;SDS011;37732;53.106;7.030;2023-02-04T05:53:21;15.43;;;3.63;;
51654;SDS011;37732;53.106;7.030;2023-02-04T05:55:46;10.07;;;3.38;;
51654;SDS011;37732;53.106;7.030;2023-02-04T05:58:12;12.85;;;3.45;;
51654;SDS011;37732;53.106;7.030;2023-02-04T06:00:39;9.15;;;2.92;;
51654;SDS011;37732;53.106;7.030;2023-02-04T06:03:05;9.98;;;3.13;;
51654;SDS011;37732;53.106;7.030;2023-02-04T06:05:31;10.30;;;3.20;;
51654;SDS011;37732;53.106;7.030;2023-02-04T06:07:56;10.73;;;2.83;;
51654;SDS011;37732;53.106;7.030;2023-02-04T06:10:22;12.20;;;2.75;;
51654;SDS011;37732;53.106;7.030;2023-02-04T06:12:48;9.52;;;2.90;;
51654;SDS011;37732;53.106;7.030;2023-02-04T06:15:14;10.15;;;2.90;;
51654;SDS011;37732;53.106;7.030;2023-02-04T06:17:40;10.65;;;3.45;;
51654;SDS011;37732;53.106;7.030;2023-02-04T06:20:06;10.70;;;3.13;;
51654;SDS011;37732;53.106;7.030;2023-02-04T06:22:33;11.52;;;3.55;;
51654;SDS011;37732;53.106;7.030;2023-02-04T06:24:58;13.30;;;3.80;;
51654;SDS011;37732;53.106;7.030;2023-02-04T06:27:24;9.05;;;3.47;;
51654;SDS011;37732;53.106;7.030;2023-02-04T06:29:51;10.73;;;3.47;;
51654;SDS011;37732;53.106;7.030;2023-02-04T06:32:17;12.88;;;4.00;;
51654;SDS011;37732;53.106;7.030;2023-02-04T06:34:44;11.10;;;3.40;;
51654;SDS011;37732;53.106;7.030;2023-02-04T06:37:09;12.73;;;4.93;;
51654;SDS011;37732;53.106;7.030;2023-02-04T06:39:36;12.85;;;4.28;;
51654;SDS011;37732;53.106;7.030;2023-02-04T06:42:03;13.73;;;4.15;;
51654;SDS011;37732;53.106;7.030;2023-02-04T06:44:29;11.63;;;3.58;;
51654;SDS011;37732;53.106;7.030;2023-02-04T06:46:54;11.20;;;4.45;;
51654;SDS011;37732;53.106;7.030;2023-02-04T06:49:20;14.25;;;4.40;;
51654;SDS011;37732;53.106;7.030;2023-02-04T06:51:46;12.70;;;3.85;;
51654;SDS011;37732;53.106;7.030;2023-02-04T06:54:12;10.15;;;3.85;;
51654;SDS011;37732;53.106;7.030;2023-02-04T06:56:38;9.32;;;3.50;;
51654;SDS011;37732;53.106;7.030;2023-02-04T06:59:04;12.63;;;4.07;;
51654;SDS011;37732;53.106;7.030;2023-02-04T07:01:29;12.00;;;3.85;;
51654;SDS011;37732;53.106;7.030;2023-02-04T07:03:55;8.45;;;3.53;;
51654;SDS011;37732;53.106;7.030;2023-02-04T07:06:21;10.57;;;3.70;;
51654;SDS011;37732;53.106;7.030;2023-02-04T07:08:47;12.52;;;4.30;;
51654;SDS011;37732;53.106;7.030;2023-02-04T07:11:13;12.60;;;4.45;;
51654;SDS011;37732;53.106;7.030;2023-02-04T07:13:39;12.82;;;4.72;;
51654;SDS011;37732;53.106;7.030;2023-02-04T07:16:05;12.27;;;3.58;;
51654;SDS011;37732;53.106;7.030;2023-02-04T07:18:31;13.77;;;3.92;;
51654;SDS011;37732;53.106;7.030;2023-02-04T07:20:57;13.48;;;3.33;;
51654;SDS011;37732;53.106;7.030;2023-02-04T07:23:23;10.05;;;3.83;;
51654;SDS011;37732;53.106;7.030;2023-02-04T07:25:49;11.02;;;3.63;;
51654;SDS011;37732;53.106;7.030;2023-02-04T07:28:20;12.65;;;3.67;;
51654;SDS011;37732;53.106;7.030;2023-02-04T07:30:45;8.88;;;3.28;;
51654;SDS011;37732;53.106;7.030;2023-02-04T07:33:11;11.75;;;3.97;;
51654;SDS011;37732;53.106;7.030;2023-02-04T07:35:37;14.40;;;4.07;;
51654;SDS011;37732;53.106;7.030;2023-02-04T07:38:03;10.88;;;3.45;;
51654;SDS011;37732;53.106;7.030;2023-02-04T07:40:29;10.38;;;3.38;;
51654;SDS011;37732;53.106;7.030;2023-02-04T07:42:55;10.38;;;3.67;;
51654;SDS011;37732;53.106;7.030;2023-02-04T07:45:20;10.43;;;3.47;;
51654;SDS011;37732;53.106;7.030;2023-02-04T07:47:46;10.98;;;3.95;;
51654;SDS011;37732;53.106;7.030;2023-02-04T07:50:12;11.52;;;2.90;;
51654;SDS011;37732;53.106;7.030;2023-02-04T07:52:37;10.10;;;3.33;;
51654;SDS011;37732;53.106;7.030;2023-02-04T07:55:04;12.55;;;2.90;;
51654;SDS011;37732;53.106;7.030;2023-02-04T07:57:30;12.52;;;3.25;;
51654;SDS011;37732;53.106;7.030;2023-02-04T07:59:55;9.30;;;2.97;;
51654;SDS011;37732;53.106;7.030;2023-02-04T08:02:21;10.73;;;2.95;;
51654;SDS011;37732;53.106;7.030;2023-02-04T08:04:47;8.48;;;2.92;;
51654;SDS011;37732;53.106;7.030;2023-02-04T08:07:12;11.50;;;3.30;;
51654;SDS011;37732;53.106;7.030;2023-02-04T08:09:38;7.93;;;4.18;;
51654;SDS011;37732;53.106;7.030;2023-02-04T08:12:04;11.00;;;4.47;;
51654;SDS011;37732;53.106;7.030;2023-02-04T08:14:29;16.20;;;5.47;;
51654;SDS011;37732;53.106;7.030;2023-02-04T08:16:55;12.52;;;5.70;;
51654;SDS011;37732;53.106;7.030;2023-02-04T08:19:21;16.55;;;5.65;;
51654;SDS011;37732;53.106;7.030;2023-02-04T08:21:47;9.75;;;4.55;;
51654;SDS011;37732;53.106;7.030;2023-02-04T08:24:16;10.82;;;4.05;;
51654;SDS011;37732;53.106;7.030;2023-02-04T08:26:42;14.88;;;4.65;;
51654;SDS011;37732;53.106;7.030;2023-02-04T08:29:08;9.45;;;3.80;;
51654;SDS011;37732;53.106;7.030;2023-02-04T08:31:34;9.95;;;3.75;;
51654;SDS011;37732;53.106;7.030;2023-02-04T08:34:02;13.57;;;3.22;;
51654;SDS011;37732;53.106;7.030;2023-02-04T08:36:29;11.30;;;3.50;;
51654;SDS011;37732;53.106;7.030;2023-02-04T08:38:55;10.15;;;3.53;;
51654;SDS011;37732;53.106;7.030;2023-02-04T08:41:20;9.35;;;3.50;;
51654;SDS011;37732;53.106;7.030;2023-02-04T08:43:46;11.65;;;3.28;;
51654;SDS011;37732;53.106;7.030;2023-02-04T08:46:12;10.05;;;3.90;;
51654;SDS011;37732;53.106;7.030;2023-02-04T08:48:37;11.32;;;3.95;;
51654;SDS011;37732;53.106;7.030;2023-02-04T08:51:03;10.32;;;3.83;;
51654;SDS011;37732;53.106;7.030;2023-02-04T08:53:29;11.77;;;3.83;;
51654;SDS011;37732;53.106;7.030;2023-02-04T08:55:55;8.95;;;3.67;;
51654;SDS011;37732;53.106;7.030;2023-02-04T08:58:20;13.00;;;4.03;;
51654;SDS011;37732;53.106;7.030;2023-02-04T09:00:46;9.77;;;3.83;;
51654;SDS011;37732;53.106;7.030;2023-02-04T09:03:12;8.30;;;3.83;;
51654;SDS011;37732;53.106;7.030;2023-02-04T09:05:37;11.35;;;6.40;;
51654;SDS011;37732;53.106;7.030;2023-02-04T09:08:03;9.90;;;5.13;;
51654;SDS011;37732;53.106;7.030;2023-02-04T09:10:29;10.45;;;4.63;;
51654;SDS011;37732;53.106;7.030;2023-02-04T09:12:54;12.13;;;4.03;;
51654;SDS011;37732;53.106;7.030;2023-02-04T09:15:21;10.88;;;4.15;;
51654;SDS011;37732;53.106;7.030;2023-02-04T09:17:48;12.60;;;4.07;;
51654;SDS011;37732;53.106;7.030;2023-02-04T09:20:15;8.35;;;4.10;;
51654;SDS011;37732;53.106;7.030;2023-02-04T09:22:40;12.93;;;3.90;;
51654;SDS011;37732;53.106;7.030;2023-02-04T09:25:06;8.40;;;3.88;;
51654;SDS011;37732;53.106;7.030;2023-02-04T09:27:32;10.60;;;4.35;;
51654;SDS011;37732;53.106;7.030;2023-02-04T09:29:58;8.25;;;3.90;;
51654;SDS011;37732;53.106;7.030;2023-02-04T09:32:24;9.70;;;3.75;;
51654;SDS011;37732;53.106;7.030;2023-02-04T09:34:49;7.50;;;3.40;;
51654;SDS011;37732;53.106;7.030;2023-02-04T09:37:15;10.50;;;4.25;;
51654;SDS011;37732;53.106;7.030;2023-02-04T09:39:41;8.65;;;3.50;;
51654;SDS011;37732;53.106;7.030;2023-02-04T09:42:08;8.68;;;3.47;;
51654;SDS011;37732;53.106;7.030;2023-02-04T09:44:37;7.13;;;3.88;;
51654;SDS011;37732;53.106;7.030;2023-02-04T09:47:03;9.57;;;4.20;;
51654;SDS011;37732;53.106;7.030;2023-02-04T09:49:28;9.75;;;4.03;;
51654;SDS011;37732;53.106;7.030;2023-02-04T09:51:54;4.97;;;2.85;;
51654;SDS011;37732;53.106;7.030;2023-02-04T09:54:24;6.88;;;3.25;;
51654;SDS011;37732;53.106;7.030;2023-02-04T09:56:50;10.43;;;4.05;;
51654;SDS011;37732;53.106;7.030;2023-02-04T09:59:20;7.07;;;3.63;;
51654;SDS011;37732;53.106;7.030;2023-02-04T10:01:59;7.53;;;3.30;;
51654;SDS011;37732;53.106;7.030;2023-02-04T10:04:26;6.82;;;3.53;;
51654;SDS011;37732;53.106;7.030;2023-02-04T10:06:53;10.23;;;3.45;;
51654;SDS011;37732;53.106;7.030;2023-02-04T10:09:22;8.35;;;3.88;;
51654;SDS011;37732;53.106;7.030;2023-02-04T10:11:48;8.68;;;3.25;;
51654;SDS011;37732;53.106;7.030;2023-02-04T10:14:15;9.45;;;4.22;;
51654;SDS011;37732;53.106;7.030;2023-02-04T10:16:45;9.77;;;3.40;;
51654;SDS011;37732;53.106;7.030;2023-02-04T10:19:18;7.28;;;3.10;;
51654;SDS011;37732;53.106;7.030;2023-02-04T10:21:44;7.80;;;3.22;;
51654;SDS011;37732;53.106;7.030;2023-02-04T10:24:17;7.55;;;3.55;;
51654;SDS011;37732;53.106;7.030;2023-02-04T10:26:45;6.40;;;3.10;;
51654;SDS011;37732;53.106;7.030;2023-02-04T10:29:13;7.18;;;3.80;;
51654;SDS011;37732;53.106;7.030;2023-02-04T10:31:40;9.05;;;4.10;;
51654;SDS011;37732;53.106;7.030;2023-02-04T10:34:18;7.50;;;3.50;;
51654;SDS011;37732;53.106;7.030;2023-02-04T10:36:47;11.60;;;3.72;;
51654;SDS011;37732;53.106;7.030;2023-02-04T10:39:16;8.55;;;3.92;;
51654;SDS011;37732;53.106;7.030;2023-02-04T10:41:44;6.55;;;3.47;;
51654;SDS011;37732;53.106;7.030;2023-02-04T10:44:14;5.60;;;3.28;;
51654;SDS011;37732;53.106;7.030;2023-02-04T10:46:41;8.05;;;3.55;;
51654;SDS011;37732;53.106;7.030;2023-02-04T10:49:17;5.57;;;3.38;;
51654;SDS011;37732;53.106;7.030;2023-02-04T10:51:48;8.30;;;3.85;;
51654;SDS011;37732;53.106;7.030;2023-02-04T10:54:15;10.23;;;4.75;;
51654;SDS011;37732;53.106;7.030;2023-02-04T11:01:55;6.78;;;3.53;;
51654;SDS011;37732;53.106;7.030;2023-02-04T11:04:22;6.32;;;3.70;;
51654;SDS011;37732;53.106;7.030;2023-02-04T11:06:50;9.13;;;4.25;;
51654;SDS011;37732;53.106;7.030;2023-02-04T11:09:17;5.97;;;3.72;;
51654;SDS011;37732;53.106;7.030;2023-02-04T11:11:46;7.03;;;3.85;;
51654;SDS011;37732;53.106;7.030;2023-02-04T11:16:52;6.40;;;3.60;;
51654;SDS011;37732;53.106;7.030;2023-02-04T11:19:30;8.25;;;3.83;;
51654;SDS011;37732;53.106;7.030;2023-02-04T11:22:04;7.93;;;3.13;;
51654;SDS011;37732;53.106;7.030;2023-02-04T11:24:47;8.45;;;3.42;;
51654;SDS011;37732;53.106;7.030;2023-02-04T11:27:19;7.97;;;3.45;;
51654;SDS011;37732;53.106;7.030;2023-02-04T11:29:51;5.47;;;3.58;;
51654;SDS011;37732;53.106;7.030;2023-02-04T11:37:38;6.55;;;3.70;;
51654;SDS011;37732;53.106;7.030;2023-02-04T11:40:24;6.88;;;3.55;;
51654;SDS011;37732;53.106;7.030;2023-02-04T11:42:59;5.30;;;3.17;;
51654;SDS011;37732;53.106;7.030;2023-02-04T11:47:52;6.93;;;3.60;;
51654;SDS011;37732;53.106;7.030;2023-02-04T11:50:22;5.45;;;3.38;;
51654;SDS011;37732;53.106;7.030;2023-02-04T11:52:54;5.72;;;3.17;;
51654;SDS011;37732;53.106;7.030;2023-02-04T11:55:22;4.68;;;3.08;;
51654;SDS011;37732;53.106;7.030;2023-02-04T11:57:52;4.78;;;3.03;;
51654;SDS011;37732;53.106;7.030;2023-02-04T12:00:23;5.13;;;3.35;;
51654;SDS011;37732;53.106;7.030;2023-02-04T12:03:05;5.07;;;3.10;;
51654;SDS011;37732;53.106;7.030;2023-02-04T12:05:54;8.00;;;4.07;;
51654;SDS011;37732;53.106;7.030;2023-02-04T12:10:49;6.15;;;3.53;;
51654;SDS011;37732;53.106;7.030;2023-02-04T12:13:24;6.90;;;3.50;;
51654;SDS011;37732;53.106;7.030;2023-02-04T12:15:53;5.78;;;3.65;;
51654;SDS011;37732;53.106;7.030;2023-02-04T12:18:23;6.72;;;3.22;;
51654;SDS011;37732;53.106;7.030;2023-02-04T12:20:48;6.53;;;3.25;;
51654;SDS011;37732;53.106;7.030;2023-02-04T12:23:14;9.27;;;3.40;;
51654;SDS011;37732;53.106;7.030;2023-02-04T12:25:40;6.07;;;3.15;;
51654;SDS011;37732;53.106;7.030;2023-02-04T12:28:05;4.90;;;2.97;;
51654;SDS011;37732;53.106;7.030;2023-02-04T12:30:31;5.80;;;3.53;;
51654;SDS011;37732;53.106;7.030;2023-02-04T12:32:56;6.30;;;3.33;;
51654;SDS011;37732;53.106;7.030;2023-02-04T12:35:22;5.88;;;3.08;;
51654;SDS011;37732;53.106;7.030;2023-02-04T12:37:48;6.43;;;3.33;;
51654;SDS011;37732;53.106;7.030;2023-02-04T12:40:14;5.55;;;3.22;;
51654;SDS011;37732;53.106;7.030;2023-02-04T12:42:41;6.43;;;3.40;;
51654;SDS011;37732;53.106;7.030;2023-02-04T12:45:07;8.73;;;3.80;;
51654;SDS011;37732;53.106;7.030;2023-02-04T12:47:34;6.88;;;3.72;;
51654;SDS011;37732;53.106;7.030;2023-02-04T12:50:00;6.20;;;3.40;;
51654;SDS011;37732;53.106;7.030;2023-02-04T12:52:25;7.00;;;3.97;;
51654;SDS011;37732;53.106;7.030;2023-02-04T12:54:51;7.78;;;3.60;;
51654;SDS011;37732;53.106;7.030;2023-02-04T12:57:17;6.82;;;3.75;;
51654;SDS011;37732;53.106;7.030;2023-02-04T12:59:47;6.85;;;3.50;;
51654;SDS011;37732;53.106;7.030;2023-02-04T13:02:13;8.35;;;3.72;;
51654;SDS011;37732;53.106;7.030;2023-02-04T13:04:39;7.60;;;3.92;;
51654;SDS011;37732;53.106;7.030;2023-02-04T13:07:05;6.13;;;3.60;;
51654;SDS011;37732;53.106;7.030;2023-02-04T13:09:33;6.70;;;4.00;;
51654;SDS011;37732;53.106;7.030;2023-02-04T13:11:59;8.27;;;4.60;;
51654;SDS011;37732;53.106;7.030;2023-02-04T13:14:24;6.70;;;3.83;;
51654;SDS011;37732;53.106;7.030;2023-02-04T13:16:50;8.50;;;3.78;;
51654;SDS011;37732;53.106;7.030;2023-02-04T13:19:16;7.72;;;3.95;;
51654;SDS011;37732;53.106;7.030;2023-02-04T13:21:41;6.97;;;3.60;;
51654;SDS011;37732;53.106;7.030;2023-02-04T13:24:07;5.32;;;3.95;;
51654;SDS011;37732;53.106;7.030;2023-02-04T13:26:33;6.50;;;3.78;;
51654;SDS011;37732;53.106;7.030;2023-02-04T13:28:58;5.82;;;3.38;;
51654;SDS011;37732;53.106;7.030;2023-02-04T13:31:24;6.72;;;4.32;;
51654;SDS011;37732;53.106;7.030;2023-02-04T13:33:50;7.00;;;3.75;;
51654;SDS011;37732;53.106;7.030;2023-02-04T13:36:15;6.38;;;3.90;;
51654;SDS011;37732;53.106;7.030;2023-02-04T13:38:41;5.95;;;3.70;;
51654;SDS011;37732;53.106;7.030;2023-02-04T13:41:07;7.15;;;3.42;;
51654;SDS011;37732;53.106;7.030;2023-02-04T13:43:33;6.78;;;3.80;;
51654;SDS011;37732;53.106;7.030;2023-02-04T13:45:58;6.55;;;3.67;;
51654;SDS011;37732;53.106;7.030;2023-02-04T13:48:26;5.95;;;3.40;;
51654;SDS011;37732;53.106;7.030;2023-02-04T13:50:52;6.82;;;3.88;;
51654;SDS011;37732;53.106;7.030;2023-02-04T13:53:18;7.22;;;3.67;;
51654;SDS011;37732;53.106;7.030;2023-02-04T13:55:44;9.65;;;3.83;;
51654;SDS011;37732;53.106;7.030;2023-02-04T13:58:09;4.93;;;3.55;;
51654;SDS011;37732;53.106;7.030;2023-02-04T14:00:35;6.07;;;3.70;;
51654;SDS011;37732;53.106;7.030;2023-02-04T14:03:01;5.70;;;3.33;;
51654;SDS011;37732;53.106;7.030;2023-02-04T14:05:26;6.03;;;3.35;;
51654;SDS011;37732;53.106;7.030;2023-02-04T14:07:52;6.30;;;3.40;;
51654;SDS011;37732;53.106;7.030;2023-02-04T14:10:18;5.63;;;3.00;;
51654;SDS011;37732;53.106;7.030;2023-02-04T14:12:46;6.43;;;3.42;;
51654;SDS011;37732;53.106;7.030;2023-02-04T14:15:11;4.60;;;2.95;;
51654;SDS011;37732;53.106;7.030;2023-02-04T14:17:37;6.90;;;3.70;;
51654;SDS011;37732;53.106;7.030;2023-02-04T14:20:03;4.43;;;3.00;;
51654;SDS011;37732;53.106;7.030;2023-02-04T14:22:29;4.40;;;3.40;;
51654;SDS011;37732;53.106;7.030;2023-02-04T14:24:55;5.70;;;3.30;;
51654;SDS011;37732;53.106;7.030;2023-02-04T14:27:21;5.50;;;3.33;;
51654;SDS011;37732;53.106;7.030;2023-02-04T14:29:47;7.07;;;3.60;;
51654;SDS011;37732;53.106;7.030;2023-02-04T14:32:12;6.07;;;3.67;;
51654;SDS011;37732;53.106;7.030;2023-02-04T14:34:38;5.05;;;3.30;;
51654;SDS011;37732;53.106;7.030;2023-02-04T14:37:04;5.90;;;3.50;;
51654;SDS011;37732;53.106;7.030;2023-02-04T14:39:29;7.53;;;5.57;;
51654;SDS011;37732;53.106;7.030;2023-02-04T14:41:55;5.35;;;3.35;;
51654;SDS011;37732;53.106;7.030;2023-02-04T14:44:21;7.43;;;3.25;;
51654;SDS011;37732;53.106;7.030;2023-02-04T14:46:47;6.22;;;3.28;;
51654;SDS011;37732;53.106;7.030;2023-02-04T14:49:14;3.90;;;3.05;;
51654;SDS011;37732;53.106;7.030;2023-02-04T14:51:40;6.63;;;3.38;;
51654;SDS011;37732;53.106;7.030;2023-02-04T14:54:06;6.45;;;3.53;;
51654;SDS011;37732;53.106;7.030;2023-02-04T14:56:32;5.95;;;4.00;;
51654;SDS011;37732;53.106;7.030;2023-02-04T14:58:57;6.72;;;3.63;;